createdAt,value
2022-07-28T00:01:18.605Z,99.90
2022-07-28T00:03:47.470Z,99.90
2022-07-28T00:06:14.508Z,99.90
2022-07-28T00:08:42.032Z,99.90
2022-07-28T00:11:09.028Z,99.90
2022-07-28T00:13:36.001Z,99.90
2022-07-28T00:16:03.696Z,99.90
2022-07-28T00:18:30.850Z,99.90
2022-07-28T00:20:57.894Z,99.90
2022-07-28T00:23:38.428Z,99.90
2022-07-28T00:26:07.970Z,99.90
2022-07-28T00:28:36.166Z,99.90
2022-07-28T00:31:05.569Z,99.90
2022-07-28T00:33:35.367Z,99.90
2022-07-28T00:36:03.190Z,99.90
2022-07-28T00:38:30.209Z,99.90
2022-07-28T00:40:57.206Z,99.90
2022-07-28T00:43:24.588Z,99.90
2022-07-28T00:45:51.631Z,99.90
2022-07-28T00:48:18.643Z,99.90
2022-07-28T00:50:46.557Z,99.90
2022-07-28T00:53:13.615Z,99.90
2022-07-28T00:56:05.496Z,99.90
2022-07-28T00:58:28.311Z,99.90
2022-07-28T01:00:55.608Z,99.90
2022-07-28T01:03:23.464Z,99.90
2022-07-28T01:06:04.335Z,99.90
2022-07-28T01:09:10.178Z,99.90
2022-07-28T01:11:53.216Z,99.90
2022-07-28T01:14:38.579Z,99.90
2022-07-28T01:17:17.295Z,99.90
2022-07-28T01:19:54.767Z,99.90
2022-07-28T01:22:25.427Z,99.90
2022-07-28T01:25:20.905Z,99.90
2022-07-28T01:28:13.269Z,99.90
2022-07-28T01:30:43.775Z,99.90
2022-07-28T01:33:20.230Z,99.90
2022-07-28T01:36:02.785Z,99.90
2022-07-28T01:38:33.080Z,99.90
2022-07-28T01:41:02.625Z,99.90
2022-07-28T01:43:34.656Z,99.90
2022-07-28T01:46:03.560Z,99.90
2022-07-28T01:48:33.150Z,99.90
2022-07-28T01:51:02.037Z,99.90
2022-07-28T01:53:32.133Z,99.90
2022-07-28T01:56:05.933Z,99.90
2022-07-28T01:58:35.416Z,99.90
2022-07-28T02:01:03.714Z,99.90
2022-07-28T02:03:32.719Z,99.90
2022-07-28T02:06:01.585Z,99.90
2022-07-28T02:08:30.183Z,99.90
2022-07-28T02:10:59.334Z,99.90
2022-07-28T02:13:26.696Z,99.90
2022-07-28T02:15:54.834Z,99.90
2022-07-28T02:18:23.317Z,99.90
2022-07-28T02:20:51.246Z,99.90
2022-07-28T02:23:19.768Z,99.90
2022-07-28T02:25:47.287Z,99.90
2022-07-28T02:28:16.797Z,99.90
2022-07-28T02:31:00.472Z,99.90
2022-07-28T02:33:58.835Z,99.90
2022-07-28T02:36:24.803Z,99.90
2022-07-28T02:38:56.137Z,99.90
2022-07-28T02:41:27.112Z,99.90
2022-07-28T02:43:59.687Z,99.90
2022-07-28T02:46:32.698Z,99.90
2022-07-28T02:49:05.562Z,99.90
2022-07-28T02:51:34.806Z,99.90
2022-07-28T02:54:03.171Z,99.90
2022-07-28T02:56:31.092Z,99.90
2022-07-28T02:58:59.848Z,99.90
2022-07-28T03:01:27.889Z,99.90
2022-07-28T03:03:56.606Z,99.90
2022-07-28T03:06:26.523Z,99.90
2022-07-28T03:08:57.655Z,99.90
2022-07-28T03:11:25.177Z,99.90
2022-07-28T03:13:52.167Z,99.90
2022-07-28T03:16:19.636Z,99.90
2022-07-28T03:18:46.704Z,99.90
2022-07-28T03:21:13.821Z,99.90
2022-07-28T03:23:43.704Z,99.90
2022-07-28T03:26:32.895Z,99.90
2022-07-28T03:29:01.541Z,99.90
2022-07-28T03:31:30.506Z,99.90
2022-07-28T03:33:57.887Z,99.90
2022-07-28T03:36:35.829Z,99.90
2022-07-28T03:39:06.269Z,99.90
2022-07-28T03:41:34.440Z,99.90
2022-07-28T03:44:01.907Z,99.90
2022-07-28T03:46:29.291Z,99.90
2022-07-28T03:48:56.877Z,99.90
2022-07-28T03:51:23.946Z,99.90
2022-07-28T03:53:51.059Z,99.90
2022-07-28T03:56:18.345Z,99.90
2022-07-28T03:58:45.456Z,99.90
2022-07-28T04:01:12.571Z,99.90
2022-07-28T04:03:43.988Z,99.90
2022-07-28T04:06:14.924Z,99.90
2022-07-28T04:08:43.630Z,99.90
2022-07-28T04:11:11.083Z,99.90
2022-07-28T04:13:38.256Z,99.90
2022-07-28T04:16:07.108Z,99.90
2022-07-28T04:18:34.515Z,99.90
2022-07-28T04:21:01.575Z,99.90
2022-07-28T04:23:29.153Z,99.90
2022-07-28T04:25:56.248Z,99.90
2022-07-28T04:28:23.262Z,99.90
2022-07-28T04:30:50.721Z,99.90
2022-07-28T04:33:17.828Z,99.90
2022-07-28T04:35:45.074Z,99.90
2022-07-28T04:38:12.904Z,99.90
2022-07-28T04:40:39.964Z,99.90
2022-07-28T04:43:07.055Z,99.90
2022-07-28T04:45:34.579Z,99.90
2022-07-28T04:48:01.673Z,99.90
2022-07-28T04:50:28.701Z,99.90
2022-07-28T04:52:56.121Z,99.90
2022-07-28T04:55:23.161Z,99.90
2022-07-28T04:57:50.159Z,99.90
2022-07-28T05:00:18.317Z,99.90
2022-07-28T05:02:46.192Z,99.90
2022-07-28T05:05:13.507Z,99.90
2022-07-28T05:07:41.756Z,99.10
2022-07-28T05:10:11.151Z,98.40
2022-07-28T05:12:38.583Z,97.60
2022-07-28T05:15:07.348Z,96.50
2022-07-28T05:17:34.531Z,95.90
2022-07-28T05:20:03.320Z,95.00
2022-07-28T05:22:42.256Z,95.10
2022-07-28T05:25:20.856Z,94.20
2022-07-28T05:27:48.713Z,92.50
2022-07-28T05:30:16.865Z,92.40
2022-07-28T05:32:44.496Z,92.20
2022-07-28T05:35:12.403Z,90.90
2022-07-28T05:37:39.470Z,88.30
2022-07-28T05:40:12.352Z,87.20
2022-07-28T05:42:40.530Z,85.30
2022-07-28T05:45:17.043Z,82.70
2022-07-28T05:47:49.848Z,79.40
2022-07-28T05:50:18.028Z,77.30
2022-07-28T05:52:46.674Z,75.70
2022-07-28T05:55:14.466Z,73.80
2022-07-28T05:57:42.108Z,67.70
2022-07-28T06:00:13.318Z,66.40
2022-07-28T06:02:41.741Z,66.10
2022-07-28T06:05:09.378Z,64.70
2022-07-28T06:07:43.173Z,61.90
2022-07-28T06:10:13.241Z,62.70
2022-07-28T06:12:49.398Z,59.10
2022-07-28T06:15:21.719Z,57.30
2022-07-28T06:17:50.437Z,56.40
2022-07-28T06:20:17.743Z,55.40
2022-07-28T06:22:47.453Z,54.10
2022-07-28T06:25:23.456Z,53.30
2022-07-28T06:27:52.426Z,50.40
2022-07-28T06:30:20.486Z,50.00
2022-07-28T06:32:48.318Z,48.30
2022-07-28T06:35:16.890Z,48.80
2022-07-28T06:37:45.344Z,48.80
2022-07-28T06:40:13.320Z,48.90
2022-07-28T06:42:41.631Z,48.00
2022-07-28T06:45:10.080Z,47.90
2022-07-28T06:47:48.786Z,47.40
2022-07-28T06:50:26.001Z,46.80
2022-07-28T06:52:55.785Z,47.00
2022-07-28T06:55:23.501Z,46.70
2022-07-28T06:57:51.068Z,46.50
2022-07-28T07:00:18.336Z,45.00
2022-07-28T07:02:45.753Z,44.80
2022-07-28T07:05:12.996Z,44.70
2022-07-28T07:07:43.284Z,44.60
2022-07-28T07:10:12.324Z,44.30
2022-07-28T07:12:39.604Z,43.80
2022-07-28T07:15:07.611Z,43.80
2022-07-28T07:17:35.075Z,43.60
2022-07-28T07:20:02.127Z,44.20
2022-07-28T07:22:29.347Z,43.20
2022-07-28T07:24:57.936Z,43.00
2022-07-28T07:27:25.130Z,42.80
2022-07-28T07:29:52.283Z,42.40
2022-07-28T07:32:19.614Z,42.40
2022-07-28T07:34:46.594Z,41.40
2022-07-28T07:37:13.805Z,42.10
2022-07-28T07:39:42.072Z,41.90
2022-07-28T07:42:09.234Z,41.70
2022-07-28T07:44:36.515Z,43.20
2022-07-28T07:47:04.338Z,40.70
2022-07-28T07:49:45.093Z,40.90
2022-07-28T07:52:14.451Z,40.80
2022-07-28T07:54:42.311Z,41.00
2022-07-28T07:57:09.933Z,40.90
2022-07-28T07:59:37.795Z,41.10
2022-07-28T08:02:05.209Z,40.80
2022-07-28T08:04:37.022Z,40.30
2022-07-28T08:07:05.738Z,41.20
2022-07-28T08:09:33.635Z,41.50
2022-07-28T08:12:00.688Z,41.50
2022-07-28T08:14:28.216Z,42.20
2022-07-28T08:16:55.259Z,41.80
2022-07-28T08:19:22.496Z,42.90
2022-07-28T08:21:51.289Z,43.70
2022-07-28T08:24:33.791Z,43.40
2022-07-28T08:27:04.984Z,44.90
2022-07-28T08:29:32.005Z,45.40
2022-07-28T08:31:59.169Z,46.40
2022-07-28T08:34:33.315Z,47.00
2022-07-28T08:37:03.416Z,47.70
2022-07-28T08:39:32.060Z,48.50
2022-07-28T08:42:13.873Z,48.40
2022-07-28T08:45:04.347Z,49.40
2022-07-28T08:47:46.087Z,50.50
2022-07-28T08:50:21.958Z,51.40
2022-07-28T08:52:53.168Z,50.80
2022-07-28T08:55:25.558Z,51.20
2022-07-28T08:58:00.036Z,51.80
2022-07-28T09:00:27.714Z,52.00
2022-07-28T09:02:57.086Z,52.40
2022-07-28T09:05:24.864Z,52.20
2022-07-28T09:07:54.946Z,52.20
2022-07-28T09:10:22.919Z,52.10
2022-07-28T09:12:50.540Z,52.90
2022-07-28T09:15:17.750Z,53.40
2022-07-28T09:17:44.877Z,53.80
2022-07-28T09:20:12.952Z,53.50
2022-07-28T09:23:01.546Z,54.80
2022-07-28T09:25:29.782Z,54.20
2022-07-28T09:28:05.227Z,54.90
2022-07-28T09:30:34.859Z,54.80
2022-07-28T09:33:41.399Z,56.30
2022-07-28T09:36:14.943Z,56.10
2022-07-28T09:38:42.159Z,55.40
2022-07-28T09:41:09.450Z,55.90
2022-07-28T09:43:39.110Z,56.50
2022-07-28T09:46:12.297Z,57.70
2022-07-28T09:48:49.139Z,57.50
2022-07-28T09:51:19.771Z,57.80
2022-07-28T09:53:47.264Z,58.50
2022-07-28T09:56:14.465Z,58.10
2022-07-28T09:58:52.241Z,58.20
2022-07-28T10:01:20.164Z,58.30
2022-07-28T10:03:51.335Z,59.40
2022-07-28T10:06:25.879Z,59.10
2022-07-28T10:08:54.035Z,59.00
2022-07-28T10:11:22.537Z,58.70
2022-07-28T10:13:55.239Z,58.90
2022-07-28T10:16:25.532Z,60.40
2022-07-28T10:18:53.225Z,59.10
2022-07-28T10:21:22.475Z,60.00
2022-07-28T10:23:59.218Z,59.60
2022-07-28T10:26:31.655Z,61.00
2022-07-28T10:29:02.866Z,60.60
2022-07-28T10:31:34.864Z,60.30
2022-07-28T10:34:03.697Z,61.10
2022-07-28T10:36:33.285Z,60.60
2022-07-28T10:39:05.498Z,60.80
2022-07-28T10:41:40.324Z,60.70
2022-07-28T10:44:08.719Z,61.30
2022-07-28T10:46:37.404Z,60.80
2022-07-28T10:49:05.183Z,60.70
2022-07-28T10:51:48.811Z,60.90
2022-07-28T10:54:30.759Z,61.60
2022-07-28T10:57:04.961Z,60.90
2022-07-28T11:00:12.213Z,60.40
2022-07-28T11:02:52.926Z,61.10
2022-07-28T11:05:26.835Z,61.60
2022-07-28T11:07:54.434Z,61.60
2022-07-28T11:10:22.576Z,60.50
2022-07-28T11:12:58.035Z,60.60
2022-07-28T11:15:28.277Z,62.40
2022-07-28T11:18:08.781Z,62.00
2022-07-28T11:20:51.964Z,61.70
2022-07-28T11:23:46.571Z,62.20
2022-07-28T11:26:20.173Z,62.20
2022-07-28T11:29:02.013Z,63.40
2022-07-28T11:31:44.460Z,62.60
2022-07-28T11:34:16.705Z,62.60
2022-07-28T11:37:03.248Z,63.10
2022-07-28T11:39:42.705Z,63.70
2022-07-28T11:42:28.778Z,63.80
2022-07-28T11:44:56.922Z,63.10
2022-07-28T11:47:25.867Z,63.10
2022-07-28T11:50:14.181Z,63.40
2022-07-28T11:52:55.981Z,63.70
2022-07-28T11:55:55.561Z,64.00
2022-07-28T11:58:27.606Z,63.70
2022-07-28T12:01:17.664Z,63.80
2022-07-28T12:03:55.442Z,63.90
2022-07-28T12:06:29.095Z,63.80
2022-07-28T12:09:01.215Z,63.40
2022-07-28T12:11:33.186Z,63.00
2022-07-28T12:14:02.530Z,64.30
2022-07-28T12:16:31.599Z,63.80
2022-07-28T12:19:00.041Z,64.20
2022-07-28T12:21:45.961Z,65.60
2022-07-28T12:24:15.850Z,64.10
2022-07-28T12:26:47.321Z,63.90
2022-07-28T12:29:16.133Z,64.20
2022-07-28T12:31:55.005Z,64.70
2022-07-28T12:34:24.315Z,65.50
2022-07-28T12:37:02.260Z,65.10
2022-07-28T12:39:31.719Z,64.50
2022-07-28T12:42:07.580Z,64.70
2022-07-28T12:44:42.380Z,66.60
2022-07-28T12:47:11.996Z,64.60
2022-07-28T12:49:41.119Z,64.80
2022-07-28T12:52:22.715Z,64.20
2022-07-28T12:54:54.829Z,64.70
2022-07-28T12:57:48.154Z,64.80
2022-07-28T13:00:18.626Z,64.90
2022-07-28T13:02:45.991Z,65.80
2022-07-28T13:05:27.034Z,65.60
2022-07-28T13:08:05.711Z,65.80
2022-07-28T13:10:33.147Z,66.00
2022-07-28T13:13:02.578Z,66.00
2022-07-28T13:15:29.663Z,65.60
2022-07-28T13:17:56.699Z,65.80
2022-07-28T13:20:24.748Z,66.40
2022-07-28T13:22:53.132Z,66.00
2022-07-28T13:25:20.946Z,65.90
2022-07-28T13:27:54.198Z,66.60
2022-07-28T13:30:23.243Z,65.80
2022-07-28T13:32:50.843Z,66.00
2022-07-28T13:35:18.189Z,66.30
2022-07-28T13:37:46.334Z,65.70
2022-07-28T13:40:13.738Z,66.00
2022-07-28T13:42:40.753Z,67.20
2022-07-28T13:45:22.249Z,66.50
2022-07-28T13:47:51.956Z,66.40
2022-07-28T13:50:19.817Z,65.90
2022-07-28T13:52:47.308Z,65.90
2022-07-28T13:55:17.748Z,65.90
2022-07-28T13:57:49.084Z,65.70
2022-07-28T14:00:17.736Z,66.60
2022-07-28T14:02:46.938Z,66.30
2022-07-28T14:05:14.008Z,65.80
2022-07-28T14:07:48.244Z,66.00
2022-07-28T14:10:17.598Z,67.00
2022-07-28T14:12:46.316Z,67.50
2022-07-28T14:15:14.421Z,66.60
2022-07-28T14:17:44.758Z,66.40
2022-07-28T14:20:14.759Z,66.10
2022-07-28T14:22:43.176Z,66.30
2022-07-28T14:25:10.885Z,66.10
2022-07-28T14:27:38.477Z,66.30
2022-07-28T14:30:06.869Z,65.60
2022-07-28T14:32:33.865Z,65.50
2022-07-28T14:35:02.334Z,66.20
2022-07-28T14:37:36.241Z,65.90
2022-07-28T14:40:09.121Z,66.00
2022-07-28T14:42:37.050Z,66.40
2022-07-28T14:45:04.342Z,66.20
2022-07-28T14:47:44.184Z,66.20
2022-07-28T14:50:13.430Z,65.90
2022-07-28T14:52:44.891Z,65.90
2022-07-28T14:55:12.905Z,66.30
2022-07-28T14:57:48.356Z,66.10
2022-07-28T15:00:20.579Z,66.40
2022-07-28T15:02:47.984Z,66.00
2022-07-28T15:05:15.243Z,66.00
2022-07-28T15:07:42.923Z,66.00
2022-07-28T15:10:10.574Z,65.90
2022-07-28T15:12:38.071Z,66.00
2022-07-28T15:15:05.994Z,66.50
2022-07-28T15:17:33.439Z,66.20
2022-07-28T15:20:00.435Z,66.30
2022-07-28T15:22:28.026Z,66.40
2022-07-28T15:24:55.018Z,66.50
2022-07-28T15:27:22.036Z,66.50
2022-07-28T15:29:52.092Z,66.60
2022-07-28T15:32:24.398Z,66.80
2022-07-28T15:34:56.065Z,66.80
2022-07-28T15:37:23.124Z,66.70
2022-07-28T15:39:50.306Z,66.80
2022-07-28T15:42:17.688Z,66.60
2022-07-28T15:44:44.795Z,66.30
2022-07-28T15:47:11.824Z,66.30
2022-07-28T15:49:39.358Z,66.20
2022-07-28T15:52:06.482Z,66.40
2022-07-28T15:54:33.469Z,65.70
2022-07-28T15:57:00.988Z,65.90
2022-07-28T15:59:49.062Z,66.40
2022-07-28T16:02:17.539Z,66.00
2022-07-28T16:04:51.064Z,66.00
2022-07-28T16:07:22.534Z,66.20
2022-07-28T16:09:51.507Z,66.10
2022-07-28T16:12:18.798Z,66.50
2022-07-28T16:14:46.275Z,65.70
2022-07-28T16:17:13.613Z,66.20
2022-07-28T16:19:50.033Z,66.40
2022-07-28T16:22:18.812Z,66.50
2022-07-28T16:24:46.199Z,66.70
2022-07-28T16:27:13.218Z,66.60
2022-07-28T16:29:41.454Z,66.40
2022-07-28T16:32:08.444Z,66.40
2022-07-28T16:34:35.459Z,66.30
2022-07-28T16:37:05.976Z,66.30
2022-07-28T16:39:34.053Z,66.50
2022-07-28T16:42:01.493Z,66.90
2022-07-28T16:44:29.634Z,66.70
2022-07-28T16:46:57.143Z,66.00
2022-07-28T16:49:24.909Z,66.30
2022-07-28T16:51:52.398Z,66.00
2022-07-28T16:54:20.013Z,66.10
2022-07-28T16:56:47.514Z,66.10
2022-07-28T16:59:15.096Z,66.60
2022-07-28T17:01:46.243Z,66.30
2022-07-28T17:04:17.454Z,66.50
2022-07-28T17:06:46.371Z,66.40
2022-07-28T17:09:14.923Z,66.50
2022-07-28T17:11:43.056Z,66.20
2022-07-28T17:14:11.530Z,66.70
2022-07-28T17:16:38.945Z,66.60
2022-07-28T17:19:06.174Z,66.40
2022-07-28T17:21:33.723Z,66.40
2022-07-28T17:24:00.785Z,66.40
2022-07-28T17:29:15.454Z,66.70
2022-07-28T17:31:42.595Z,67.60
2022-07-28T17:34:09.939Z,66.60
2022-07-28T17:36:37.519Z,66.90
2022-07-28T17:39:05.502Z,67.20
2022-07-28T17:41:33.421Z,67.30
2022-07-28T17:44:01.029Z,67.50
2022-07-28T17:46:29.239Z,67.60
2022-07-28T17:48:56.342Z,67.70
2022-07-28T17:51:23.868Z,67.70
2022-07-28T17:53:51.015Z,67.50
2022-07-28T17:56:18.434Z,67.70
2022-07-28T17:58:46.058Z,67.90
2022-07-28T18:01:14.423Z,67.90
2022-07-28T18:03:56.829Z,68.20
2022-07-28T18:06:37.574Z,68.50
2022-07-28T18:09:08.126Z,68.70
2022-07-28T18:11:56.966Z,68.90
2022-07-28T18:14:28.888Z,69.20
2022-07-28T18:16:57.491Z,69.10
2022-07-28T18:19:24.825Z,69.50
2022-07-28T18:21:51.887Z,69.80
2022-07-28T18:24:20.034Z,69.60
2022-07-28T18:26:47.927Z,69.40
2022-07-28T18:29:15.131Z,69.90
2022-07-28T18:31:46.480Z,69.80
2022-07-28T18:34:15.045Z,70.10
2022-07-28T18:36:42.620Z,70.60
2022-07-28T18:39:10.318Z,70.40
2022-07-28T18:41:47.350Z,70.20
2022-07-28T18:44:19.456Z,70.40
2022-07-28T18:46:47.269Z,70.60
2022-07-28T18:49:14.883Z,70.70
2022-07-28T18:51:45.200Z,70.90
2022-07-28T18:54:17.493Z,71.30
2022-07-28T18:56:47.970Z,71.50
2022-07-28T18:59:15.123Z,71.70
2022-07-28T19:01:42.217Z,71.80
2022-07-28T19:04:11.983Z,71.80
2022-07-28T19:06:39.075Z,71.90
2022-07-28T19:09:06.108Z,72.30
2022-07-28T19:11:33.700Z,72.10
2022-07-28T19:14:01.228Z,72.10
2022-07-28T19:16:28.314Z,72.40
2022-07-28T19:18:55.933Z,72.60
2022-07-28T19:21:23.555Z,72.70
2022-07-28T19:23:50.575Z,72.60
2022-07-28T19:26:18.197Z,73.10
2022-07-28T19:28:45.819Z,72.60
2022-07-28T19:31:12.929Z,72.90
2022-07-28T19:33:43.779Z,73.20
2022-07-28T19:36:12.257Z,73.90
2022-07-28T19:38:39.495Z,74.50
2022-07-28T19:41:10.289Z,75.80
2022-07-28T19:43:37.359Z,76.10
2022-07-28T19:46:04.587Z,77.00
2022-07-28T19:48:32.517Z,78.50
2022-07-28T19:51:00.811Z,79.30
2022-07-28T19:53:31.651Z,79.90
2022-07-28T19:55:59.767Z,80.10
2022-07-28T19:58:28.018Z,80.80
2022-07-28T20:00:56.423Z,81.30
2022-07-28T20:04:01.862Z,81.60
2022-07-28T20:06:12.333Z,82.20
2022-07-28T20:08:39.903Z,83.40
2022-07-28T20:11:07.326Z,83.50
2022-07-28T20:13:34.700Z,83.90
2022-07-28T20:16:02.255Z,84.40
2022-07-28T20:18:29.322Z,84.90
2022-07-28T20:20:56.410Z,85.60
2022-07-28T20:23:24.064Z,85.80
2022-07-28T20:25:51.045Z,86.20
2022-07-28T20:28:18.046Z,86.80
2022-07-28T20:30:45.699Z,87.20
2022-07-28T20:33:12.780Z,87.60
2022-07-28T20:35:39.858Z,88.10
2022-07-28T20:38:07.376Z,88.40
2022-07-28T20:40:37.202Z,89.10
2022-07-28T20:43:04.201Z,89.40
2022-07-28T20:45:31.923Z,90.00
2022-07-28T20:47:59.350Z,90.30
2022-07-28T20:50:26.619Z,90.30
2022-07-28T20:52:54.309Z,90.60
2022-07-28T20:55:21.478Z,90.80
2022-07-28T20:57:53.674Z,91.20
2022-07-28T21:00:22.683Z,91.80
2022-07-28T21:02:50.235Z,92.30
2022-07-28T21:05:34.757Z,92.80
2022-07-28T21:08:06.364Z,93.30
2022-07-28T21:10:37.141Z,93.90
2022-07-28T21:13:04.738Z,94.60
2022-07-28T21:15:31.968Z,95.20
2022-07-28T21:17:59.816Z,95.60
2022-07-28T21:20:27.338Z,96.30
2022-07-28T21:22:54.390Z,96.30
2022-07-28T21:25:21.527Z,96.80
2022-07-28T21:27:48.939Z,97.30
2022-07-28T21:30:15.978Z,98.10
2022-07-28T21:32:43.014Z,98.50
2022-07-28T21:35:14.218Z,99.00
2022-07-28T21:37:41.436Z,99.50
2022-07-28T21:40:08.939Z,99.90
2022-07-28T21:42:36.384Z,99.90
2022-07-28T21:45:03.807Z,99.90
2022-07-28T21:47:38.389Z,99.90
2022-07-28T21:50:06.082Z,99.90
2022-07-28T21:52:33.088Z,99.90
2022-07-28T21:55:02.001Z,99.90
2022-07-28T21:57:29.179Z,99.90
2022-07-28T21:59:56.418Z,99.90
2022-07-28T22:02:24.217Z,99.90
2022-07-28T22:04:52.442Z,99.90
2022-07-28T22:07:19.529Z,99.90
2022-07-28T22:09:46.950Z,99.90
2022-07-28T22:12:14.133Z,99.90
2022-07-28T22:14:41.179Z,99.90
2022-07-28T22:17:08.678Z,99.90
2022-07-28T22:19:36.501Z,99.90
2022-07-28T22:22:03.675Z,99.90
2022-07-28T22:24:31.186Z,99.90
2022-07-28T22:26:58.349Z,99.90
2022-07-28T22:29:25.383Z,99.90
2022-07-28T22:31:56.015Z,99.90
2022-07-28T22:34:26.567Z,99.90
2022-07-28T22:36:54.042Z,99.90
2022-07-28T22:39:21.043Z,99.90
2022-07-28T22:41:48.487Z,99.90
2022-07-28T22:44:16.402Z,99.90
2022-07-28T22:46:43.779Z,99.90
2022-07-28T22:49:10.946Z,99.90
2022-07-28T22:51:38.500Z,99.90
2022-07-28T22:54:05.608Z,99.90
2022-07-28T22:56:34.731Z,99.90
2022-07-28T22:59:03.879Z,99.90
2022-07-28T23:01:30.915Z,99.90
2022-07-28T23:03:58.966Z,99.90
2022-07-28T23:06:27.157Z,99.90
2022-07-28T23:08:54.287Z,99.90
2022-07-28T23:11:21.455Z,99.90
2022-07-28T23:13:48.935Z,99.90
2022-07-28T23:16:15.982Z,99.90
2022-07-28T23:18:44.245Z,99.90
2022-07-28T23:21:12.007Z,99.90
2022-07-28T23:23:39.225Z,99.90
2022-07-28T23:26:06.423Z,99.90
2022-07-28T23:28:34.032Z,99.90
2022-07-28T23:31:01.008Z,99.90
2022-07-28T23:33:54.659Z,99.90
2022-07-28T23:36:25.914Z,99.90
2022-07-28T23:38:57.721Z,99.90
2022-07-28T23:41:25.906Z,99.90
2022-07-28T23:43:53.434Z,99.90
2022-07-28T23:46:21.004Z,99.90
2022-07-28T23:48:49.835Z,99.90
2022-07-28T23:51:16.930Z,99.90
2022-07-28T23:53:44.211Z,99.90
2022-07-28T23:56:13.853Z,99.90
2022-07-28T23:58:41.085Z,99.90
